createdAt,value
2019-02-19T00:00:30.143Z,16.50
2019-02-19T00:02:58.412Z,15.50
2019-02-19T00:05:26.702Z,16.70
2019-02-19T00:07:54.977Z,15.43
2019-02-19T00:10:23.240Z,16.20
2019-02-19T00:12:51.512Z,16.50
2019-02-19T00:15:19.773Z,15.80
2019-02-19T00:17:48.082Z,14.27
2019-02-19T00:20:16.344Z,15.47
2019-02-19T00:22:44.612Z,16.70
2019-02-19T00:25:12.898Z,15.17
2019-02-19T00:27:41.167Z,15.90
2019-02-19T00:30:09.502Z,15.87
2019-02-19T00:32:37.777Z,16.52
2019-02-19T00:35:06.630Z,15.63
2019-02-19T00:37:34.878Z,14.87
2019-02-19T00:40:03.165Z,17.17
2019-02-19T00:42:31.446Z,16.07
2019-02-19T00:44:59.705Z,15.50
2019-02-19T00:47:28.001Z,15.20
2019-02-19T00:49:56.249Z,17.73
2019-02-19T00:52:24.543Z,15.87
2019-02-19T00:54:52.873Z,16.40
2019-02-19T00:57:21.137Z,16.20
2019-02-19T00:59:49.388Z,15.90
2019-02-19T01:02:17.686Z,17.67
2019-02-19T01:04:45.965Z,16.73
2019-02-19T01:07:14.255Z,15.33
2019-02-19T01:09:42.536Z,15.77
2019-02-19T01:12:10.787Z,16.70
2019-02-19T01:14:39.105Z,15.00
2019-02-19T01:17:07.390Z,14.90
2019-02-19T01:19:35.683Z,14.93
2019-02-19T01:22:03.973Z,15.90
2019-02-19T01:24:32.235Z,14.93
2019-02-19T01:27:00.544Z,15.35
2019-02-19T01:29:28.803Z,14.73
2019-02-19T01:31:57.083Z,16.50
2019-02-19T01:34:25.364Z,16.27
2019-02-19T01:36:53.634Z,16.03
2019-02-19T01:39:21.932Z,16.60
2019-02-19T01:41:50.210Z,15.60
2019-02-19T01:44:18.480Z,16.87
2019-02-19T01:46:47.702Z,16.62
2019-02-19T01:49:15.980Z,15.58
2019-02-19T01:51:44.250Z,16.95
2019-02-19T01:54:12.548Z,16.70
2019-02-19T01:56:40.819Z,16.25
2019-02-19T01:59:09.090Z,17.25
2019-02-19T02:01:37.394Z,16.90
2019-02-19T02:04:05.661Z,16.43
2019-02-19T02:06:33.939Z,16.40
2019-02-19T02:09:02.211Z,17.60
2019-02-19T02:11:30.477Z,16.20
2019-02-19T02:13:58.751Z,16.35
2019-02-19T02:16:27.053Z,15.90
2019-02-19T02:18:55.346Z,17.83
2019-02-19T02:21:23.620Z,16.03
2019-02-19T02:23:51.916Z,19.10
2019-02-19T02:26:20.183Z,16.50
2019-02-19T02:28:48.464Z,16.42
2019-02-19T02:31:16.746Z,16.40
2019-02-19T02:33:45.012Z,17.60
2019-02-19T02:36:13.296Z,16.70
2019-02-19T02:38:41.587Z,17.20
2019-02-19T02:41:09.864Z,16.83
2019-02-19T02:43:38.136Z,16.73
2019-02-19T02:46:06.449Z,17.10
2019-02-19T02:48:34.737Z,16.93
2019-02-19T02:51:03.082Z,17.50
2019-02-19T02:53:31.361Z,19.47
2019-02-19T02:55:59.654Z,17.17
2019-02-19T02:58:27.938Z,17.27
2019-02-19T03:00:56.224Z,16.97
2019-02-19T03:03:24.528Z,16.62
2019-02-19T03:06:01.760Z,16.97
2019-02-19T03:08:30.031Z,17.13
2019-02-19T03:10:58.287Z,19.33
2019-02-19T03:13:26.602Z,19.40
2019-02-19T03:16:02.154Z,18.90
2019-02-19T03:18:24.853Z,20.87
2019-02-19T03:20:53.163Z,18.53
2019-02-19T03:23:21.480Z,20.57
2019-02-19T03:25:49.765Z,20.27
2019-02-19T03:28:18.047Z,19.40
2019-02-19T03:30:46.346Z,19.47
2019-02-19T03:33:14.626Z,19.73
2019-02-19T03:35:42.897Z,22.13
2019-02-19T03:38:11.190Z,23.65
2019-02-19T03:40:39.491Z,23.50
2019-02-19T03:43:07.792Z,23.75
2019-02-19T03:45:36.092Z,22.80
2019-02-19T03:48:04.356Z,21.87
2019-02-19T03:50:32.637Z,24.43
2019-02-19T03:53:00.910Z,24.73
2019-02-19T03:55:29.182Z,22.70
2019-02-19T03:57:57.535Z,25.00
2019-02-19T04:00:25.892Z,25.70
2019-02-19T04:02:54.152Z,24.60
2019-02-19T04:05:22.438Z,24.23
2019-02-19T04:07:50.701Z,24.93
2019-02-19T04:10:18.971Z,23.18
2019-02-19T04:12:47.247Z,24.50
2019-02-19T04:15:15.507Z,26.57
2019-02-19T04:17:43.783Z,26.93
2019-02-19T04:20:12.046Z,27.13
2019-02-19T04:22:40.314Z,30.07
2019-02-19T04:25:08.590Z,27.10
2019-02-19T04:27:36.898Z,27.77
2019-02-19T04:30:06.997Z,29.70
2019-02-19T04:32:35.259Z,29.23
2019-02-19T04:35:04.018Z,31.17
2019-02-19T04:37:32.292Z,31.53
2019-02-19T04:40:00.668Z,30.52
2019-02-19T04:42:28.920Z,30.17
2019-02-19T04:44:57.201Z,30.70
2019-02-19T04:47:25.548Z,29.57
2019-02-19T04:49:53.817Z,30.70
2019-02-19T04:52:22.081Z,31.40
2019-02-19T04:54:50.346Z,34.50
2019-02-19T04:57:18.637Z,34.30
2019-02-19T04:59:46.944Z,35.43
2019-02-19T05:02:15.279Z,34.17
2019-02-19T05:04:43.561Z,33.93
2019-02-19T05:07:11.869Z,31.30
2019-02-19T05:09:40.180Z,28.05
2019-02-19T05:12:08.435Z,30.50
2019-02-19T05:14:36.708Z,28.90
2019-02-19T05:17:05.050Z,28.83
2019-02-19T05:19:33.314Z,29.70
2019-02-19T05:22:01.590Z,27.80
2019-02-19T05:24:29.862Z,29.40
2019-02-19T05:26:58.147Z,29.15
2019-02-19T05:29:26.417Z,30.63
2019-02-19T05:31:54.706Z,30.08
2019-02-19T05:34:22.967Z,30.80
2019-02-19T05:36:51.257Z,31.20
2019-02-19T05:39:19.525Z,33.50
2019-02-19T05:41:47.812Z,32.40
2019-02-19T05:44:16.091Z,34.50
2019-02-19T05:46:49.875Z,37.95
2019-02-19T05:49:14.338Z,35.97
2019-02-19T05:51:42.611Z,37.38
2019-02-19T05:54:10.884Z,40.57
2019-02-19T05:56:39.140Z,37.30
2019-02-19T05:59:07.428Z,36.27
2019-02-19T06:01:35.715Z,36.23
2019-02-19T06:04:03.970Z,38.50
2019-02-19T06:06:32.251Z,38.83
2019-02-19T06:09:00.506Z,39.90
2019-02-19T06:11:28.808Z,35.63
2019-02-19T06:13:57.082Z,38.53
2019-02-19T06:16:25.372Z,35.60
2019-02-19T06:18:53.641Z,35.60
2019-02-19T06:21:21.912Z,35.37
2019-02-19T06:23:50.180Z,35.20
2019-02-19T06:26:18.457Z,32.05
2019-02-19T06:28:46.740Z,32.30
2019-02-19T06:31:15.000Z,33.57
2019-02-19T06:33:44.090Z,32.90
2019-02-19T06:36:12.362Z,32.60
2019-02-19T06:38:40.628Z,32.80
2019-02-19T06:41:08.909Z,33.87
2019-02-19T06:43:37.177Z,33.80
2019-02-19T06:46:05.450Z,33.00
2019-02-19T06:48:33.734Z,31.70
2019-02-19T06:51:02.008Z,35.43
2019-02-19T06:53:30.280Z,32.23
2019-02-19T06:55:58.548Z,31.47
2019-02-19T06:58:26.827Z,33.90
2019-02-19T07:00:55.094Z,33.00
2019-02-19T07:03:25.018Z,31.73
2019-02-19T07:05:53.298Z,30.10
2019-02-19T07:08:21.558Z,33.50
2019-02-19T07:10:49.830Z,29.90
2019-02-19T07:13:18.086Z,34.23
2019-02-19T07:15:46.349Z,30.33
2019-02-19T07:18:15.427Z,30.60
2019-02-19T07:20:43.683Z,31.55
2019-02-19T07:23:11.953Z,31.50
2019-02-19T07:25:40.228Z,30.50
2019-02-19T07:28:08.487Z,31.87
2019-02-19T07:30:36.766Z,30.23
2019-02-19T07:33:05.042Z,32.63
2019-02-19T07:35:33.333Z,31.60
2019-02-19T07:38:01.600Z,28.90
2019-02-19T07:40:29.857Z,31.33
2019-02-19T07:42:58.121Z,31.42
2019-02-19T07:45:26.384Z,27.95
2019-02-19T07:47:54.655Z,30.50
2019-02-19T07:50:22.930Z,29.10
2019-02-19T07:52:51.198Z,30.37
2019-02-19T07:55:19.461Z,28.10
2019-02-19T07:57:47.742Z,27.70
2019-02-19T08:00:16.023Z,26.20
2019-02-19T08:02:44.288Z,27.67
2019-02-19T08:05:12.562Z,27.20
2019-02-19T08:07:40.843Z,25.57
2019-02-19T08:10:10.854Z,25.93
2019-02-19T08:12:39.118Z,27.03
2019-02-19T08:15:11.464Z,25.30
2019-02-19T08:17:39.729Z,27.47
2019-02-19T08:20:15.407Z,24.73
2019-02-19T08:22:39.297Z,23.80
2019-02-19T08:25:07.566Z,24.40
2019-02-19T08:27:35.851Z,24.57
2019-02-19T08:30:05.789Z,23.90
2019-02-19T08:32:34.049Z,22.43
2019-02-19T08:35:02.319Z,23.23
2019-02-19T08:37:30.650Z,23.53
2019-02-19T08:39:58.925Z,20.77
2019-02-19T08:42:27.200Z,19.50
2019-02-19T08:44:55.456Z,21.17
2019-02-19T08:47:23.712Z,20.50
2019-02-19T08:49:51.989Z,18.80
2019-02-19T08:52:20.254Z,20.23
2019-02-19T08:54:48.526Z,19.47
2019-02-19T08:57:16.778Z,20.33
2019-02-19T08:59:45.291Z,18.32
2019-02-19T09:02:13.566Z,17.77
2019-02-19T09:04:41.816Z,20.70
2019-02-19T09:07:10.079Z,19.48
2019-02-19T09:09:38.359Z,19.05
2019-02-19T09:12:06.650Z,17.80
2019-02-19T09:14:34.910Z,18.27
2019-02-19T09:17:03.179Z,14.70
2019-02-19T09:19:31.461Z,17.03
2019-02-19T09:21:59.805Z,16.50
2019-02-19T09:24:28.091Z,18.97
2019-02-19T09:26:56.379Z,16.25
2019-02-19T09:29:24.629Z,16.00
2019-02-19T09:31:52.890Z,16.67
2019-02-19T09:34:22.707Z,17.10
2019-02-19T09:36:50.983Z,17.02
2019-02-19T09:39:19.251Z,15.80
2019-02-19T09:41:47.507Z,16.77
2019-02-19T09:44:15.822Z,15.40
2019-02-19T09:46:44.102Z,15.80
2019-02-19T09:49:12.351Z,16.20
2019-02-19T09:51:40.602Z,17.40
2019-02-19T09:54:08.866Z,15.23
2019-02-19T09:56:37.116Z,14.80
2019-02-19T09:59:05.374Z,15.00
2019-02-19T10:01:33.645Z,14.13
2019-02-19T10:04:01.910Z,15.17
2019-02-19T10:06:30.171Z,15.80
2019-02-19T10:08:58.425Z,13.80
2019-02-19T10:11:26.754Z,14.30
2019-02-19T10:13:55.026Z,15.93
2019-02-19T10:16:23.282Z,13.33
2019-02-19T10:18:51.583Z,13.30
2019-02-19T10:21:19.821Z,12.70
2019-02-19T10:23:48.099Z,13.93
2019-02-19T10:26:16.359Z,12.20
2019-02-19T10:28:44.624Z,14.07
2019-02-19T10:31:12.877Z,13.67
2019-02-19T10:33:41.936Z,14.00
2019-02-19T10:36:10.200Z,13.87
2019-02-19T10:38:38.458Z,12.70
2019-02-19T10:41:06.716Z,12.30
2019-02-19T10:43:34.982Z,11.27
2019-02-19T10:46:03.242Z,12.33
2019-02-19T10:48:31.506Z,12.90
2019-02-19T10:50:59.787Z,11.33
2019-02-19T10:53:28.060Z,10.78
2019-02-19T10:55:56.317Z,11.15
2019-02-19T10:58:24.583Z,12.55
2019-02-19T11:00:52.851Z,12.47
2019-02-19T11:03:21.122Z,12.25
2019-02-19T11:05:49.378Z,12.73
2019-02-19T11:08:17.649Z,11.00
2019-02-19T11:10:45.915Z,11.10
2019-02-19T11:13:14.176Z,10.83
2019-02-19T11:15:42.451Z,11.55
2019-02-19T11:18:10.697Z,9.87
2019-02-19T11:20:38.971Z,11.23
2019-02-19T11:23:07.236Z,11.60
2019-02-19T11:25:35.509Z,11.77
2019-02-19T11:28:03.777Z,10.77
2019-02-19T11:30:32.045Z,11.30
2019-02-19T11:33:00.295Z,10.80
2019-02-19T11:35:28.569Z,12.17
2019-02-19T11:37:56.842Z,10.30
2019-02-19T11:40:25.103Z,11.33
2019-02-19T11:42:53.364Z,11.90
2019-02-19T11:45:23.285Z,12.07
2019-02-19T11:47:51.470Z,11.20
2019-02-19T11:50:19.741Z,11.07
2019-02-19T11:52:48.025Z,11.93
2019-02-19T11:55:20.575Z,10.95
2019-02-19T11:57:48.833Z,11.00
2019-02-19T12:00:18.908Z,11.53
2019-02-19T12:02:49.191Z,11.20
2019-02-19T12:05:17.161Z,10.70
2019-02-19T12:07:45.443Z,11.90
2019-02-19T12:10:13.703Z,10.47
2019-02-19T12:12:41.959Z,11.60
2019-02-19T12:15:13.580Z,11.73
2019-02-19T12:17:41.846Z,11.63
2019-02-19T12:20:13.956Z,12.70
2019-02-19T12:22:42.279Z,10.73
2019-02-19T12:25:11.087Z,11.68
2019-02-19T12:27:39.347Z,11.33
2019-02-19T12:30:16.660Z,11.93
2019-02-19T12:32:44.937Z,13.10
2019-02-19T12:35:13.204Z,12.70
2019-02-19T12:37:41.470Z,12.20
2019-02-19T12:40:11.576Z,14.28
2019-02-19T12:42:39.842Z,12.10
2019-02-19T12:45:10.480Z,12.30
2019-02-19T12:47:38.785Z,12.33
2019-02-19T12:50:12.259Z,12.87
2019-02-19T12:52:40.527Z,12.80
2019-02-19T12:55:09.619Z,13.10
2019-02-19T12:57:37.891Z,12.30
2019-02-19T13:00:09.561Z,12.07
2019-02-19T13:02:37.826Z,11.33
2019-02-19T13:05:08.318Z,13.48
2019-02-19T13:07:36.988Z,12.57
2019-02-19T13:10:07.764Z,11.67
2019-02-19T13:12:36.035Z,12.23
2019-02-19T13:15:06.245Z,10.93
2019-02-19T13:17:34.510Z,11.50
2019-02-19T13:20:02.935Z,10.80
2019-02-19T13:22:31.202Z,11.57
2019-02-19T13:24:59.451Z,13.10
2019-02-19T13:27:27.801Z,13.00
2019-02-19T13:29:56.058Z,11.90
2019-02-19T13:32:24.342Z,13.47
2019-02-19T13:34:52.609Z,13.63
2019-02-19T13:37:20.878Z,14.37
2019-02-19T13:39:49.158Z,15.43
2019-02-19T13:42:17.423Z,16.93
2019-02-19T13:44:45.692Z,15.90
2019-02-19T13:47:13.954Z,15.30
2019-02-19T13:49:42.217Z,15.07
2019-02-19T13:52:12.153Z,15.53
2019-02-19T13:54:41.080Z,16.33
2019-02-19T13:57:09.356Z,16.13
2019-02-19T13:59:37.609Z,13.70
2019-02-19T14:02:06.363Z,15.28
2019-02-19T14:04:34.638Z,15.07
2019-02-19T14:07:02.910Z,16.07
2019-02-19T14:09:31.184Z,16.55
2019-02-19T14:11:59.454Z,15.53
2019-02-19T14:14:41.422Z,14.85
2019-02-19T14:17:09.842Z,14.60
2019-02-19T14:19:39.763Z,14.53
2019-02-19T14:22:25.635Z,14.83
2019-02-19T14:24:55.535Z,17.07
2019-02-19T14:27:27.900Z,17.40
2019-02-19T14:30:03.608Z,15.20
2019-02-19T14:32:49.613Z,14.50
2019-02-19T14:35:35.457Z,16.80
2019-02-19T14:38:05.362Z,14.50
2019-02-19T14:40:50.929Z,14.93
2019-02-19T14:43:32.265Z,14.70
2019-02-19T14:46:05.079Z,14.05
2019-02-19T14:48:35.013Z,16.03
2019-02-19T14:51:04.915Z,15.20
2019-02-19T14:53:40.795Z,13.70
2019-02-19T14:56:25.785Z,12.75
2019-02-19T14:59:07.475Z,13.25
2019-02-19T15:01:43.056Z,13.70
2019-02-19T15:04:12.999Z,14.03
2019-02-19T15:06:48.984Z,13.93
2019-02-19T15:09:21.655Z,12.30
2019-02-19T15:11:51.578Z,11.47
2019-02-19T15:14:24.371Z,11.80
2019-02-19T15:16:56.951Z,11.90
2019-02-19T15:19:29.248Z,11.68
2019-02-19T15:22:07.687Z,11.78
2019-02-19T15:24:55.136Z,12.80
2019-02-19T15:27:27.441Z,11.07
2019-02-19T15:30:05.806Z,11.30
2019-02-19T15:32:50.791Z,9.30
2019-02-19T15:35:36.928Z,9.30
2019-02-19T15:38:22.959Z,6.73
2019-02-19T15:41:01.274Z,6.93
2019-02-19T15:43:31.171Z,6.50
2019-02-19T15:46:03.787Z,6.50
2019-02-19T15:48:33.862Z,6.05
2019-02-19T15:51:06.469Z,6.25
2019-02-19T15:53:48.212Z,7.12
2019-02-19T15:56:18.119Z,7.10
2019-02-19T15:58:50.808Z,7.50
2019-02-19T16:01:23.109Z,6.90
2019-02-19T16:03:52.998Z,7.63
2019-02-19T16:06:25.879Z,6.40
2019-02-19T16:08:55.782Z,7.70
2019-02-19T16:11:31.388Z,8.03
2019-02-19T16:14:01.281Z,8.83
2019-02-19T16:16:47.230Z,8.40
2019-02-19T16:19:28.882Z,7.40
2019-02-19T16:22:07.865Z,7.80
2019-02-19T16:24:53.778Z,7.90
2019-02-19T16:27:29.717Z,8.28
2019-02-19T16:30:17.708Z,9.15
2019-02-19T16:33:03.767Z,9.60
2019-02-19T16:35:33.663Z,8.90
2019-02-19T16:38:03.581Z,9.20
2019-02-19T16:40:36.117Z,9.83
2019-02-19T16:43:21.692Z,8.87
2019-02-19T16:45:54.515Z,10.60
2019-02-19T16:48:24.434Z,10.33
2019-02-19T16:50:54.333Z,9.27
2019-02-19T16:53:24.248Z,10.13
2019-02-19T16:56:10.075Z,8.70
2019-02-19T16:58:45.999Z,9.00
2019-02-19T17:01:21.625Z,8.93
2019-02-19T17:03:54.476Z,9.96
2019-02-19T17:06:24.469Z,9.77
2019-02-19T17:09:10.334Z,9.20
2019-02-19T17:11:49.297Z,9.58
2019-02-19T17:14:19.214Z,8.20
2019-02-19T17:16:51.757Z,7.50
2019-02-19T17:19:30.594Z,7.70
2019-02-19T17:22:03.212Z,6.17
2019-02-19T17:24:42.063Z,7.00
2019-02-19T17:27:20.779Z,6.87
2019-02-19T17:29:50.955Z,6.07
2019-02-19T17:32:36.805Z,5.73
2019-02-19T17:35:08.152Z,5.97
2019-02-19T17:37:40.735Z,7.58
2019-02-19T17:40:10.702Z,6.13
2019-02-19T17:42:40.612Z,7.07
2019-02-19T17:45:13.246Z,6.90
2019-02-19T17:47:51.886Z,7.85
2019-02-19T17:50:38.774Z,7.23
2019-02-19T17:53:24.780Z,7.30
2019-02-19T17:55:54.691Z,7.93
2019-02-19T17:58:33.277Z,7.33
2019-02-19T18:01:20.956Z,7.47
2019-02-19T18:03:50.871Z,7.35
2019-02-19T18:06:23.465Z,7.43
2019-02-19T18:09:10.914Z,7.00
2019-02-19T18:11:52.764Z,6.77
2019-02-19T18:14:28.573Z,7.67
2019-02-19T18:17:13.541Z,7.37
2019-02-19T18:19:41.806Z,7.00
2019-02-19T18:22:10.061Z,6.22
2019-02-19T18:24:38.350Z,6.17
2019-02-19T18:27:06.613Z,6.50
2019-02-19T18:29:34.881Z,6.93
2019-02-19T18:32:03.150Z,7.60
2019-02-19T18:34:31.424Z,7.10
2019-02-19T18:36:59.673Z,6.60
2019-02-19T18:39:27.952Z,9.17
2019-02-19T18:41:56.214Z,6.50
2019-02-19T18:44:24.467Z,6.90
2019-02-19T18:46:52.743Z,6.33
2019-02-19T18:49:21.002Z,7.13
2019-02-19T18:51:49.264Z,8.17
2019-02-19T18:54:17.543Z,7.13
2019-02-19T18:56:45.816Z,7.30
2019-02-19T18:59:14.099Z,7.33
2019-02-19T19:01:42.402Z,7.80
2019-02-19T19:04:10.673Z,7.90
2019-02-19T19:06:38.950Z,6.90
2019-02-19T19:09:07.294Z,7.57
2019-02-19T19:11:35.572Z,8.60
2019-02-19T19:14:03.836Z,8.90
2019-02-19T19:16:32.112Z,7.50
2019-02-19T19:19:00.382Z,7.45
2019-02-19T19:21:28.638Z,7.42
2019-02-19T19:23:57.010Z,7.97
2019-02-19T19:26:25.288Z,7.25
2019-02-19T19:28:53.568Z,7.78
2019-02-19T19:31:21.841Z,6.80
2019-02-19T19:33:50.106Z,8.60
2019-02-19T19:36:18.364Z,7.07
2019-02-19T19:38:46.643Z,7.57
2019-02-19T19:41:14.904Z,6.57
2019-02-19T19:43:43.528Z,7.30
2019-02-19T19:46:11.782Z,8.10
2019-02-19T19:48:40.074Z,9.03
2019-02-19T19:51:16.915Z,7.20
2019-02-19T19:53:38.861Z,7.20
2019-02-19T19:56:07.136Z,8.83
2019-02-19T19:58:35.403Z,8.65
2019-02-19T20:01:03.685Z,7.30
2019-02-19T20:03:31.954Z,7.57
2019-02-19T20:06:00.233Z,9.20
2019-02-19T20:08:28.498Z,7.80
2019-02-19T20:10:56.767Z,9.03
2019-02-19T20:13:25.041Z,10.03
2019-02-19T20:15:53.308Z,8.00
2019-02-19T20:18:21.598Z,9.97
2019-02-19T20:20:49.941Z,9.43
2019-02-19T20:23:18.233Z,7.50
2019-02-19T20:25:46.526Z,8.20
2019-02-19T20:28:14.794Z,9.20
2019-02-19T20:30:43.045Z,8.00
2019-02-19T20:33:11.313Z,8.73
2019-02-19T20:35:39.585Z,7.83
2019-02-19T20:38:07.849Z,9.00
2019-02-19T20:40:36.102Z,9.93
2019-02-19T20:43:04.375Z,7.30
2019-02-19T20:45:32.652Z,7.57
2019-02-19T20:48:00.993Z,7.15
2019-02-19T20:50:29.256Z,7.37
2019-02-19T20:52:57.511Z,7.83
2019-02-19T20:55:25.825Z,6.90
2019-02-19T20:57:54.109Z,8.10
2019-02-19T21:00:22.387Z,8.80
2019-02-19T21:02:50.667Z,7.07
2019-02-19T21:05:18.928Z,7.57
2019-02-19T21:07:47.191Z,7.83
2019-02-19T21:10:19.523Z,8.80
2019-02-19T21:12:47.830Z,8.80
2019-02-19T21:15:16.092Z,7.45
2019-02-19T21:17:44.342Z,7.78
2019-02-19T21:20:12.892Z,7.92
2019-02-19T21:22:41.164Z,7.50
2019-02-19T21:25:10.371Z,7.60
2019-02-19T21:27:38.629Z,7.03
2019-02-19T21:30:12.302Z,7.80
2019-02-19T21:32:40.567Z,8.13
2019-02-19T21:35:09.477Z,7.40
2019-02-19T21:37:37.813Z,7.73
2019-02-19T21:40:11.063Z,9.27
2019-02-19T21:42:39.338Z,8.03
2019-02-19T21:45:13.621Z,9.20
2019-02-19T21:47:41.907Z,8.27
2019-02-19T21:50:11.397Z,8.43
2019-02-19T21:52:39.835Z,8.27
2019-02-19T21:55:12.092Z,7.80
2019-02-19T21:57:40.361Z,8.00
2019-02-19T22:00:11.006Z,9.07
2019-02-19T22:02:39.290Z,6.97
2019-02-19T22:05:07.722Z,8.88
2019-02-19T22:07:35.980Z,8.68
2019-02-19T22:10:05.896Z,8.00
2019-02-19T22:12:34.167Z,8.83
2019-02-19T22:15:02.425Z,9.60
2019-02-19T22:17:30.691Z,8.40
2019-02-19T22:20:03.142Z,8.50
2019-02-19T22:22:29.222Z,8.40
2019-02-19T22:24:57.470Z,8.73
2019-02-19T22:27:25.736Z,9.37
2019-02-19T22:29:53.989Z,8.90
2019-02-19T22:32:22.253Z,8.77
2019-02-19T22:34:50.534Z,10.10
2019-02-19T22:37:18.928Z,8.80
2019-02-19T22:39:47.441Z,9.53
2019-02-19T22:42:15.741Z,10.43
2019-02-19T22:44:43.991Z,8.60
2019-02-19T22:47:12.278Z,10.38
2019-02-19T22:49:40.570Z,10.48
2019-02-19T22:52:12.495Z,11.10
2019-02-19T22:54:40.513Z,9.57
2019-02-19T22:57:08.776Z,10.43
2019-02-19T22:59:37.050Z,10.60
2019-02-19T23:02:07.031Z,10.60
2019-02-19T23:04:35.312Z,9.93
2019-02-19T23:07:03.574Z,12.73
2019-02-19T23:09:31.854Z,10.77
2019-02-19T23:12:03.028Z,10.70
2019-02-19T23:14:31.295Z,10.20
2019-02-19T23:16:59.574Z,9.40
2019-02-19T23:19:27.845Z,11.75
2019-02-19T23:21:56.129Z,10.17
2019-02-19T23:24:24.370Z,9.95
2019-02-19T23:26:52.738Z,11.17
2019-02-19T23:29:21.000Z,11.30
2019-02-19T23:31:49.274Z,11.67
2019-02-19T23:34:17.558Z,10.23
2019-02-19T23:36:47.461Z,11.80
2019-02-19T23:39:15.751Z,10.50
2019-02-19T23:41:44.026Z,11.48
2019-02-19T23:44:12.320Z,11.80
2019-02-19T23:46:40.581Z,11.23
2019-02-19T23:49:08.891Z,12.27
2019-02-19T23:51:37.105Z,11.40
2019-02-19T23:54:05.379Z,12.67
2019-02-19T23:56:33.658Z,11.23
2019-02-19T23:59:01.926Z,11.43
